createdAt,value
2022-11-26T00:00:31.293Z,4.86
2022-11-26T00:01:31.257Z,4.83
2022-11-26T00:02:31.462Z,4.83
2022-11-26T00:03:31.297Z,4.91
2022-11-26T00:04:31.228Z,4.98
2022-11-26T00:05:31.236Z,5.12
2022-11-26T00:06:31.214Z,5.18
2022-11-26T00:07:31.266Z,5.19
2022-11-26T00:08:31.187Z,5.24
2022-11-26T00:09:31.173Z,5.18
2022-11-26T00:10:31.184Z,5.18
2022-11-26T00:11:31.149Z,5.14
2022-11-26T00:12:31.175Z,5.11
2022-11-26T00:13:31.128Z,5.06
2022-11-26T00:14:31.140Z,5.01
2022-11-26T00:15:31.138Z,4.96
2022-11-26T00:16:31.210Z,4.88
2022-11-26T00:17:31.090Z,4.83
2022-11-26T00:18:31.084Z,4.78
2022-11-26T00:19:31.078Z,4.74
2022-11-26T00:20:31.073Z,4.74
2022-11-26T00:21:31.064Z,4.71
2022-11-26T00:22:31.054Z,4.67
2022-11-26T00:23:31.024Z,4.66
2022-11-26T00:24:31.025Z,4.64
2022-11-26T00:25:31.046Z,4.61
2022-11-26T00:26:31.039Z,4.59
2022-11-26T00:27:31.007Z,4.57
2022-11-26T00:28:30.988Z,4.54
2022-11-26T00:29:30.974Z,4.54
2022-11-26T00:30:30.973Z,4.53
2022-11-26T00:31:30.989Z,4.53
2022-11-26T00:32:30.949Z,4.49
2022-11-26T00:33:30.930Z,4.49
2022-11-26T00:34:30.936Z,4.49
2022-11-26T00:35:30.914Z,4.49
2022-11-26T00:36:30.899Z,4.48
2022-11-26T00:37:30.884Z,4.48
2022-11-26T00:38:30.885Z,4.46
2022-11-26T00:39:30.857Z,4.45
2022-11-26T00:40:30.929Z,4.42
2022-11-26T00:41:30.847Z,4.42
2022-11-26T00:42:30.841Z,4.39
2022-11-26T00:43:30.820Z,4.36
2022-11-26T00:44:30.823Z,4.31
2022-11-26T00:45:30.896Z,4.28
2022-11-26T00:46:30.806Z,4.24
2022-11-26T00:47:30.786Z,4.20
2022-11-26T00:48:30.777Z,4.13
2022-11-26T00:49:30.778Z,4.08
2022-11-26T00:50:30.785Z,4.05
2022-11-26T00:51:30.745Z,4.02
2022-11-26T00:52:30.729Z,4.00
2022-11-26T00:53:30.727Z,4.00
2022-11-26T00:54:30.726Z,3.98
2022-11-26T00:55:30.698Z,3.98
2022-11-26T00:56:33.869Z,3.94
2022-11-26T00:57:30.683Z,3.92
2022-11-26T00:58:30.700Z,3.91
2022-11-26T00:59:30.650Z,3.91
2022-11-26T01:00:30.674Z,3.90
2022-11-26T01:01:30.746Z,3.91
2022-11-26T01:02:30.759Z,3.91
2022-11-26T01:03:30.624Z,3.91
2022-11-26T01:04:30.623Z,3.91
2022-11-26T01:05:30.627Z,3.88
2022-11-26T01:06:30.662Z,3.88
2022-11-26T01:07:30.602Z,3.90
2022-11-26T01:08:30.569Z,3.96
2022-11-26T01:09:30.581Z,3.92
2022-11-26T01:10:30.545Z,3.94
2022-11-26T01:11:30.536Z,3.98
2022-11-26T01:12:30.574Z,4.03
2022-11-26T01:13:30.514Z,4.05
2022-11-26T01:14:30.515Z,4.06
2022-11-26T01:15:30.503Z,4.05
2022-11-26T01:16:30.558Z,4.06
2022-11-26T01:17:30.476Z,4.05
2022-11-26T01:18:30.462Z,4.05
2022-11-26T01:19:30.453Z,4.02
2022-11-26T01:20:30.454Z,4.00
2022-11-26T01:21:30.451Z,3.99
2022-11-26T01:22:30.436Z,3.94
2022-11-26T01:23:30.432Z,3.96
2022-11-26T01:24:30.406Z,3.92
2022-11-26T01:25:30.412Z,3.92
2022-11-26T01:26:30.387Z,3.91
2022-11-26T01:27:30.369Z,3.90
2022-11-26T01:28:30.370Z,3.88
2022-11-26T01:29:30.368Z,3.90
2022-11-26T01:30:30.358Z,3.92
2022-11-26T01:31:30.379Z,4.03
2022-11-26T01:32:30.328Z,4.08
2022-11-26T01:33:30.319Z,4.12
2022-11-26T01:34:30.449Z,4.17
2022-11-26T01:35:30.288Z,4.18
2022-11-26T01:36:30.289Z,4.18
2022-11-26T01:37:30.268Z,4.21
2022-11-26T01:38:30.274Z,4.21
2022-11-26T01:39:30.244Z,4.21
2022-11-26T01:40:30.252Z,4.24
2022-11-26T01:41:30.229Z,4.23
2022-11-26T01:42:30.230Z,4.26
2022-11-26T01:43:30.210Z,4.26
2022-11-26T01:44:30.217Z,4.26
2022-11-26T01:45:30.212Z,4.24
2022-11-26T01:46:30.198Z,4.24
2022-11-26T01:47:30.168Z,4.26
2022-11-26T01:48:30.160Z,4.27
2022-11-26T01:49:30.162Z,4.27
2022-11-26T01:50:30.149Z,4.26
2022-11-26T01:51:30.134Z,4.26
2022-11-26T01:52:30.150Z,4.27
2022-11-26T01:53:30.105Z,4.26
2022-11-26T01:54:30.126Z,4.27
2022-11-26T01:55:30.112Z,4.28
2022-11-26T01:56:30.082Z,4.27
2022-11-26T01:57:30.067Z,4.28
2022-11-26T01:58:30.078Z,4.27
2022-11-26T01:59:30.055Z,4.28
2022-11-26T02:00:30.053Z,4.27
2022-11-26T02:01:30.145Z,4.30
2022-11-26T02:02:30.192Z,4.28
2022-11-26T02:03:30.003Z,4.30
2022-11-26T02:04:30.028Z,4.30
2022-11-26T02:05:29.987Z,4.30
2022-11-26T02:06:29.989Z,4.30
2022-11-26T02:07:30.084Z,4.36
2022-11-26T02:08:29.959Z,4.43
2022-11-26T02:09:29.947Z,4.51
2022-11-26T02:10:29.959Z,4.54
2022-11-26T02:11:29.924Z,4.57
2022-11-26T02:12:29.918Z,4.57
2022-11-26T02:13:29.903Z,4.60
2022-11-26T02:14:29.912Z,4.64
2022-11-26T02:15:29.893Z,4.67
2022-11-26T02:16:29.968Z,4.69
2022-11-26T02:17:29.873Z,4.69
2022-11-26T02:18:29.865Z,4.66
2022-11-26T02:19:29.851Z,4.66
2022-11-26T02:20:29.866Z,4.64
2022-11-26T02:21:29.816Z,4.61
2022-11-26T02:22:29.830Z,4.59
2022-11-26T02:23:29.804Z,4.54
2022-11-26T02:24:29.784Z,4.53
2022-11-26T02:25:29.822Z,4.48
2022-11-26T02:26:29.783Z,4.42
2022-11-26T02:27:29.775Z,4.39
2022-11-26T02:28:29.754Z,4.38
2022-11-26T02:29:29.747Z,4.35
2022-11-26T02:30:29.767Z,4.31
2022-11-26T02:31:29.772Z,4.28
2022-11-26T02:32:29.712Z,4.23
2022-11-26T02:33:29.703Z,4.23
2022-11-26T02:34:34.270Z,4.21
2022-11-26T02:35:29.683Z,4.20
2022-11-26T02:36:29.692Z,4.17
2022-11-26T02:37:29.657Z,4.16
2022-11-26T02:38:29.657Z,4.12
2022-11-26T02:39:29.630Z,4.09
2022-11-26T02:40:29.636Z,4.08
2022-11-26T02:41:29.622Z,4.05
2022-11-26T02:42:29.625Z,3.99
2022-11-26T02:43:29.599Z,3.98
2022-11-26T02:44:29.598Z,3.91
2022-11-26T02:45:29.609Z,3.88
2022-11-26T02:46:29.583Z,3.82
2022-11-26T02:47:29.575Z,3.78
2022-11-26T02:48:29.557Z,3.76
2022-11-26T02:49:29.537Z,3.70
2022-11-26T02:50:29.537Z,3.66
2022-11-26T02:51:34.588Z,3.62
2022-11-26T02:52:29.576Z,3.56
2022-11-26T02:53:29.494Z,3.54
2022-11-26T02:54:29.519Z,3.48
2022-11-26T02:55:29.482Z,3.44
2022-11-26T02:56:29.465Z,3.45
2022-11-26T02:57:29.553Z,3.37
2022-11-26T02:58:29.457Z,3.37
2022-11-26T02:59:29.436Z,3.32
2022-11-26T03:00:29.424Z,3.26
2022-11-26T03:01:29.648Z,3.25
2022-11-26T03:02:29.423Z,3.18
2022-11-26T03:03:29.467Z,3.17
2022-11-26T03:04:29.390Z,3.12
2022-11-26T03:05:29.367Z,3.08
2022-11-26T03:06:29.364Z,3.07
2022-11-26T03:07:29.523Z,3.02
2022-11-26T03:08:29.349Z,2.99
2022-11-26T03:09:29.345Z,2.94
2022-11-26T03:10:29.314Z,2.93
2022-11-26T03:11:29.405Z,2.90
2022-11-26T03:12:29.334Z,2.89
2022-11-26T03:13:29.296Z,2.87
2022-11-26T03:14:29.285Z,2.84
2022-11-26T03:15:29.282Z,2.81
2022-11-26T03:16:29.355Z,2.82
2022-11-26T03:17:29.269Z,2.82
2022-11-26T03:18:29.242Z,2.84
2022-11-26T03:19:29.245Z,2.84
2022-11-26T03:20:29.231Z,2.86
2022-11-26T03:21:29.212Z,2.87
2022-11-26T03:22:29.222Z,2.86
2022-11-26T03:23:29.200Z,2.87
2022-11-26T03:24:29.180Z,2.89
2022-11-26T03:25:29.182Z,2.89
2022-11-26T03:26:29.169Z,2.90
2022-11-26T03:27:29.182Z,2.93
2022-11-26T03:28:29.140Z,2.94
2022-11-26T03:29:29.130Z,2.96
2022-11-26T03:30:29.124Z,2.99
2022-11-26T03:31:29.190Z,3.00
2022-11-26T03:32:29.101Z,3.04
2022-11-26T03:33:29.132Z,3.07
2022-11-26T03:34:29.089Z,3.08
2022-11-26T03:35:29.079Z,3.14
2022-11-26T03:36:29.063Z,3.15
2022-11-26T03:37:29.061Z,3.18
2022-11-26T03:38:29.051Z,3.23
2022-11-26T03:39:29.032Z,3.25
2022-11-26T03:40:29.020Z,3.26
2022-11-26T03:41:29.023Z,3.29
2022-11-26T03:42:29.008Z,3.32
2022-11-26T03:43:29.007Z,3.32
2022-11-26T03:44:28.987Z,3.35
2022-11-26T03:45:29.025Z,3.36
2022-11-26T03:46:28.958Z,3.42
2022-11-26T03:47:29.221Z,3.44
2022-11-26T03:48:28.936Z,3.48
2022-11-26T03:49:28.931Z,3.51
2022-11-26T03:50:28.913Z,3.55
2022-11-26T03:51:28.974Z,3.60
2022-11-26T03:52:28.937Z,3.60
2022-11-26T03:53:28.898Z,3.64
2022-11-26T03:54:28.875Z,3.67
2022-11-26T03:55:28.872Z,3.67
2022-11-26T03:56:28.870Z,3.70
2022-11-26T03:57:28.871Z,3.73
2022-11-26T03:58:28.858Z,3.74
2022-11-26T03:59:28.838Z,3.76
2022-11-26T04:00:28.822Z,3.78
2022-11-26T04:01:28.934Z,3.81
2022-11-26T04:02:28.795Z,3.82
2022-11-26T04:03:28.867Z,3.82
2022-11-26T04:04:28.778Z,3.82
2022-11-26T04:05:28.762Z,3.87
2022-11-26T04:06:28.756Z,3.85
2022-11-26T04:07:28.797Z,3.88
2022-11-26T04:08:28.745Z,3.88
2022-11-26T04:09:28.737Z,3.90
2022-11-26T04:10:28.713Z,3.91
2022-11-26T04:11:28.715Z,3.92
2022-11-26T04:12:28.693Z,3.92
2022-11-26T04:13:28.704Z,3.94
2022-11-26T04:14:28.669Z,3.96
2022-11-26T04:15:28.674Z,3.96
2022-11-26T04:16:28.719Z,3.98
2022-11-26T04:17:28.654Z,3.98
2022-11-26T04:18:28.639Z,3.99
2022-11-26T04:19:28.632Z,3.99
2022-11-26T04:20:28.623Z,4.00
2022-11-26T04:21:28.599Z,4.02
2022-11-26T04:22:28.591Z,4.03
2022-11-26T04:23:28.598Z,4.03
2022-11-26T04:24:28.573Z,4.03
2022-11-26T04:25:28.566Z,4.05
2022-11-26T04:26:28.540Z,4.06
2022-11-26T04:27:28.549Z,4.05
2022-11-26T04:28:28.551Z,4.06
2022-11-26T04:29:28.521Z,4.08
2022-11-26T04:30:30.043Z,4.08
2022-11-26T04:31:28.617Z,4.09
2022-11-26T04:32:28.498Z,4.10
2022-11-26T04:33:28.499Z,4.10
2022-11-26T04:34:28.456Z,4.10
2022-11-26T04:35:28.499Z,4.10
2022-11-26T04:36:28.451Z,4.10
2022-11-26T04:37:28.441Z,4.16
2022-11-26T04:38:28.428Z,4.17
2022-11-26T04:39:28.457Z,4.17
2022-11-26T04:40:28.406Z,4.17
2022-11-26T04:41:28.408Z,4.17
2022-11-26T04:42:28.402Z,4.21
2022-11-26T04:43:28.392Z,4.20
2022-11-26T04:44:28.367Z,4.23
2022-11-26T04:45:28.443Z,4.24
2022-11-26T04:46:28.357Z,4.24
2022-11-26T04:47:28.367Z,4.27
2022-11-26T04:48:28.332Z,4.27
2022-11-26T04:49:28.332Z,4.27
2022-11-26T04:50:28.307Z,4.28
2022-11-26T04:51:28.324Z,4.30
2022-11-26T04:52:28.284Z,4.31
2022-11-26T04:53:28.283Z,4.34
2022-11-26T04:54:28.264Z,4.35
2022-11-26T04:55:28.263Z,4.41
2022-11-26T04:56:28.269Z,4.42
2022-11-26T04:57:28.244Z,4.45
2022-11-26T04:58:28.219Z,4.48
2022-11-26T04:59:28.228Z,4.49
2022-11-26T05:00:28.208Z,4.49
2022-11-26T05:01:28.246Z,4.51
2022-11-26T05:02:28.211Z,4.53
2022-11-26T05:03:28.184Z,4.53
2022-11-26T05:04:28.178Z,4.51
2022-11-26T05:05:28.163Z,4.51
2022-11-26T05:06:28.158Z,4.54
2022-11-26T05:07:28.200Z,4.54
2022-11-26T05:08:28.124Z,4.53
2022-11-26T05:09:28.120Z,4.53
2022-11-26T05:10:28.094Z,4.54
2022-11-26T05:11:28.116Z,4.53
2022-11-26T05:12:28.107Z,4.54
2022-11-26T05:13:28.072Z,4.54
2022-11-26T05:14:28.060Z,4.51
2022-11-26T05:15:28.057Z,4.54
2022-11-26T05:16:28.168Z,4.53
2022-11-26T05:17:28.048Z,4.54
2022-11-26T05:18:28.038Z,4.53
2022-11-26T05:19:28.028Z,4.53
2022-11-26T05:20:28.004Z,4.51
2022-11-26T05:21:27.987Z,4.51
2022-11-26T05:22:27.980Z,4.51
2022-11-26T05:23:27.975Z,4.48
2022-11-26T05:24:27.979Z,4.49
2022-11-26T05:25:27.960Z,4.48
2022-11-26T05:26:27.935Z,4.49
2022-11-26T05:27:27.937Z,4.49
2022-11-26T05:28:28.488Z,4.48
2022-11-26T05:29:33.936Z,4.48
2022-11-26T05:30:27.959Z,4.46
2022-11-26T05:31:27.901Z,4.43
2022-11-26T05:32:27.881Z,4.42
2022-11-26T05:33:27.892Z,4.42
2022-11-26T05:34:27.860Z,4.41
2022-11-26T05:35:27.871Z,4.39
2022-11-26T05:36:27.842Z,4.39
2022-11-26T05:37:27.835Z,4.38
2022-11-26T05:38:27.844Z,4.36
2022-11-26T05:39:27.817Z,4.35
2022-11-26T05:40:27.807Z,4.35
2022-11-26T05:41:27.793Z,4.34
2022-11-26T05:42:27.781Z,4.31
2022-11-26T05:43:27.764Z,4.31
2022-11-26T05:44:27.777Z,4.35
2022-11-26T05:45:27.829Z,4.31
2022-11-26T05:46:27.753Z,4.30
2022-11-26T05:47:27.729Z,4.30
2022-11-26T05:48:27.729Z,4.30
2022-11-26T05:49:27.729Z,4.28
2022-11-26T05:50:27.709Z,4.27
2022-11-26T05:51:27.697Z,4.26
2022-11-26T05:52:27.702Z,4.24
2022-11-26T05:53:27.668Z,4.26
2022-11-26T05:54:27.652Z,4.24
2022-11-26T05:55:27.669Z,4.26
2022-11-26T05:56:27.626Z,4.24
2022-11-26T05:57:27.631Z,4.24
2022-11-26T05:58:27.629Z,4.26
2022-11-26T05:59:27.619Z,4.24
2022-11-26T06:00:27.603Z,4.23
2022-11-26T06:01:27.590Z,4.24
2022-11-26T06:02:27.684Z,4.23
2022-11-26T06:03:27.747Z,4.24
2022-11-26T06:04:27.542Z,4.24
2022-11-26T06:05:27.577Z,4.27
2022-11-26T06:06:27.538Z,4.30
2022-11-26T06:07:27.569Z,4.31
2022-11-26T06:08:27.506Z,4.34
2022-11-26T06:09:27.504Z,4.36
2022-11-26T06:10:27.499Z,4.36
2022-11-26T06:11:27.505Z,4.35
2022-11-26T06:12:27.473Z,4.38
2022-11-26T06:13:27.601Z,4.38
2022-11-26T06:14:27.451Z,4.39
2022-11-26T06:15:27.493Z,4.39
2022-11-26T06:16:27.450Z,4.42
2022-11-26T06:17:27.441Z,4.43
2022-11-26T06:18:27.413Z,4.45
2022-11-26T06:19:27.404Z,4.45
2022-11-26T06:20:27.401Z,4.45
2022-11-26T06:21:27.383Z,4.46
2022-11-26T06:22:27.376Z,4.51
2022-11-26T06:23:27.366Z,4.54
2022-11-26T06:24:27.345Z,4.53
2022-11-26T06:25:27.359Z,4.59
2022-11-26T06:26:27.326Z,4.57
2022-11-26T06:27:27.337Z,4.59
2022-11-26T06:28:27.310Z,4.60
2022-11-26T06:29:28.341Z,4.64
2022-11-26T06:30:27.294Z,4.66
2022-11-26T06:31:27.390Z,4.69
2022-11-26T06:32:27.314Z,4.72
2022-11-26T06:33:27.271Z,4.71
2022-11-26T06:34:27.242Z,4.72
2022-11-26T06:35:27.257Z,4.71
2022-11-26T06:36:27.234Z,4.71
2022-11-26T06:37:27.232Z,4.69
2022-11-26T06:38:27.201Z,4.66
2022-11-26T06:39:27.202Z,4.64
2022-11-26T06:40:27.135Z,4.63
2022-11-26T06:41:27.140Z,4.60
2022-11-26T06:42:27.145Z,4.57
2022-11-26T06:43:27.101Z,4.54
2022-11-26T06:44:27.086Z,4.54
2022-11-26T06:45:27.113Z,4.49
2022-11-26T06:46:27.065Z,4.48
2022-11-26T06:47:27.086Z,4.48
2022-11-26T06:48:27.078Z,4.43
2022-11-26T06:49:27.067Z,4.42
2022-11-26T06:50:27.077Z,4.42
2022-11-26T06:51:27.064Z,4.39
2022-11-26T06:52:27.076Z,4.38
2022-11-26T06:53:27.083Z,4.36
2022-11-26T06:54:26.993Z,4.35
2022-11-26T06:55:26.977Z,4.35
2022-11-26T06:56:26.980Z,4.34
2022-11-26T06:57:26.979Z,4.31
2022-11-26T06:58:26.945Z,4.31
2022-11-26T06:59:26.987Z,4.30
2022-11-26T07:00:26.925Z,4.30
2022-11-26T07:01:27.055Z,4.30
2022-11-26T07:02:27.024Z,4.31
2022-11-26T07:03:31.979Z,4.36
2022-11-26T07:04:26.914Z,4.39
2022-11-26T07:05:26.895Z,4.41
2022-11-26T07:06:26.909Z,4.45
2022-11-26T07:07:26.926Z,4.46
2022-11-26T07:08:26.858Z,4.49
2022-11-26T07:09:26.968Z,4.51
2022-11-26T07:10:26.857Z,4.53
2022-11-26T07:11:26.904Z,4.56
2022-11-26T07:12:26.868Z,4.57
2022-11-26T07:13:26.844Z,4.59
2022-11-26T07:14:26.836Z,4.60
2022-11-26T07:15:26.785Z,4.61
2022-11-26T07:16:26.870Z,4.61
2022-11-26T07:17:26.768Z,4.63
2022-11-26T07:18:26.749Z,4.61
2022-11-26T07:19:26.738Z,4.60
2022-11-26T07:20:26.723Z,4.61
2022-11-26T07:21:26.738Z,4.63
2022-11-26T07:22:26.707Z,4.63
2022-11-26T07:23:26.693Z,4.64
2022-11-26T07:24:26.721Z,4.64
2022-11-26T07:25:26.666Z,4.64
2022-11-26T07:26:26.691Z,4.64
2022-11-26T07:27:26.664Z,4.64
2022-11-26T07:28:26.653Z,4.63
2022-11-26T07:29:26.635Z,4.61
2022-11-26T07:30:26.636Z,4.63
2022-11-26T07:31:26.677Z,4.64
2022-11-26T07:32:26.607Z,4.63
2022-11-26T07:33:26.585Z,4.66
2022-11-26T07:34:26.575Z,4.67
2022-11-26T07:35:26.566Z,4.67
2022-11-26T07:36:26.578Z,4.69
2022-11-26T07:37:26.548Z,4.69
2022-11-26T07:38:26.546Z,4.72
2022-11-26T07:39:26.519Z,4.72
2022-11-26T07:40:26.526Z,4.77
2022-11-26T07:41:26.518Z,4.77
2022-11-26T07:42:26.502Z,4.79
2022-11-26T07:43:26.498Z,4.85
2022-11-26T07:44:26.480Z,4.89
2022-11-26T07:45:26.473Z,4.93
2022-11-26T07:46:26.564Z,4.94
2022-11-26T07:47:26.443Z,4.96
2022-11-26T07:48:26.443Z,4.97
2022-11-26T07:49:26.435Z,4.97
2022-11-26T07:50:26.418Z,4.97
2022-11-26T07:51:26.465Z,5.00
2022-11-26T07:52:26.409Z,5.01
2022-11-26T07:53:26.449Z,5.01
2022-11-26T07:54:26.381Z,5.04
2022-11-26T07:55:26.362Z,5.04
2022-11-26T07:56:26.373Z,5.07
2022-11-26T07:57:26.332Z,5.11
2022-11-26T07:58:26.334Z,5.11
2022-11-26T07:59:26.327Z,5.12
2022-11-26T08:00:26.330Z,5.15
2022-11-26T08:01:26.368Z,5.14
2022-11-26T08:02:26.365Z,5.14
2022-11-26T08:03:26.275Z,5.15
2022-11-26T08:04:26.278Z,5.15
2022-11-26T08:05:26.244Z,5.16
2022-11-26T08:06:26.278Z,5.15
2022-11-26T08:07:29.458Z,5.16
2022-11-26T08:08:26.249Z,5.19
2022-11-26T08:09:26.214Z,5.22
2022-11-26T08:10:26.251Z,5.25
2022-11-26T08:11:26.198Z,5.27
2022-11-26T08:12:26.319Z,5.30
2022-11-26T08:13:26.686Z,5.33
2022-11-26T08:14:26.197Z,5.37
2022-11-26T08:15:26.182Z,5.37
2022-11-26T08:16:28.842Z,5.39
2022-11-26T08:17:26.141Z,5.37
2022-11-26T08:18:26.140Z,5.41
2022-11-26T08:19:26.123Z,5.44
2022-11-26T08:20:29.110Z,5.48
2022-11-26T08:21:26.093Z,5.57
2022-11-26T08:22:26.125Z,5.59
2022-11-26T08:23:26.061Z,5.61
2022-11-26T08:24:26.090Z,5.62
2022-11-26T08:25:26.048Z,5.67
2022-11-26T08:26:38.371Z,5.65
2022-11-26T08:27:26.037Z,5.66
2022-11-26T08:28:26.038Z,5.67
2022-11-26T08:29:26.005Z,5.70
2022-11-26T08:30:26.095Z,5.72
2022-11-26T08:31:26.035Z,5.73
2022-11-26T08:32:25.980Z,5.75
2022-11-26T08:33:25.964Z,5.77
2022-11-26T08:34:25.979Z,5.82
2022-11-26T08:35:44.460Z,5.90
2022-11-26T08:36:25.993Z,5.93
2022-11-26T08:37:25.954Z,5.88
2022-11-26T08:38:25.927Z,5.93
2022-11-26T08:39:25.957Z,5.94
2022-11-26T08:40:25.959Z,5.98
2022-11-26T08:41:25.916Z,6.00
2022-11-26T08:42:25.876Z,6.03
2022-11-26T08:43:45.119Z,6.06
2022-11-26T08:44:25.907Z,6.05
2022-11-26T08:45:25.862Z,6.06
2022-11-26T08:46:25.930Z,6.06
2022-11-26T08:47:25.816Z,6.05
2022-11-26T08:48:29.120Z,6.06
2022-11-26T08:49:25.817Z,6.09
2022-11-26T08:50:25.790Z,6.09
2022-11-26T08:51:25.784Z,6.06
2022-11-26T08:52:25.765Z,6.06
2022-11-26T08:53:25.748Z,6.12
2022-11-26T08:54:25.764Z,6.16
2022-11-26T08:55:27.091Z,6.15
2022-11-26T08:56:25.740Z,6.16
2022-11-26T08:57:25.754Z,6.16
2022-11-26T08:58:25.706Z,6.21
2022-11-26T08:59:25.731Z,6.21
2022-11-26T09:00:25.701Z,6.21
2022-11-26T09:01:25.701Z,6.19
2022-11-26T09:02:25.674Z,6.19
2022-11-26T09:03:25.715Z,6.19
2022-11-26T09:04:25.655Z,6.21
2022-11-26T09:05:25.680Z,6.19
2022-11-26T09:06:25.658Z,6.24
2022-11-26T09:07:25.713Z,6.25
2022-11-26T09:08:25.636Z,6.27
2022-11-26T09:09:25.612Z,6.24
2022-11-26T09:10:25.631Z,6.24
2022-11-26T09:11:25.582Z,6.19
2022-11-26T09:12:25.567Z,6.21
2022-11-26T09:13:25.533Z,6.24
2022-11-26T09:14:25.532Z,6.18
2022-11-26T09:15:25.537Z,6.24
2022-11-26T09:16:25.551Z,6.25
2022-11-26T09:17:25.499Z,6.28
2022-11-26T09:18:25.514Z,6.28
2022-11-26T09:19:25.489Z,6.34
2022-11-26T09:20:25.518Z,6.37
2022-11-26T09:21:25.485Z,6.43
2022-11-26T09:22:25.495Z,6.45
2022-11-26T09:23:25.446Z,6.45
2022-11-26T09:24:25.559Z,6.45
2022-11-26T09:25:25.427Z,6.46
2022-11-26T09:26:25.426Z,6.46
2022-11-26T09:27:25.422Z,6.50
2022-11-26T09:28:25.419Z,6.55
2022-11-26T09:29:25.405Z,6.60
2022-11-26T09:30:25.388Z,6.57
2022-11-26T09:31:25.421Z,6.60
2022-11-26T09:32:29.687Z,6.64
2022-11-26T09:33:25.381Z,6.67
2022-11-26T09:34:25.364Z,6.67
2022-11-26T09:35:25.325Z,6.73
2022-11-26T09:36:25.323Z,6.67
2022-11-26T09:37:25.290Z,6.65
2022-11-26T09:38:25.294Z,6.65
2022-11-26T09:39:25.286Z,6.64
2022-11-26T09:40:25.284Z,6.67
2022-11-26T09:41:25.248Z,6.67
2022-11-26T09:42:25.295Z,6.71
2022-11-26T09:43:25.239Z,6.71
2022-11-26T09:44:25.246Z,6.74
2022-11-26T09:45:25.277Z,6.75
2022-11-26T09:46:25.209Z,6.82
2022-11-26T09:47:25.186Z,6.88
2022-11-26T09:48:25.271Z,6.89
2022-11-26T09:49:25.189Z,6.93
2022-11-26T09:50:25.228Z,6.99
2022-11-26T09:51:25.197Z,7.08
2022-11-26T09:52:25.162Z,7.16
2022-11-26T09:53:25.180Z,7.21
2022-11-26T09:54:25.150Z,7.22
2022-11-26T09:55:25.148Z,7.25
2022-11-26T09:56:25.140Z,7.26
2022-11-26T09:57:25.105Z,7.25
2022-11-26T09:58:27.311Z,7.33
2022-11-26T09:59:25.080Z,7.34
2022-11-26T10:00:25.069Z,7.36
2022-11-26T10:01:25.203Z,7.42
2022-11-26T10:02:25.225Z,7.55
2022-11-26T10:03:25.055Z,7.64
2022-11-26T10:04:25.020Z,7.76
2022-11-26T10:05:24.989Z,7.71
2022-11-26T10:06:25.031Z,7.71
2022-11-26T10:07:25.034Z,7.87
2022-11-26T10:08:24.978Z,7.98
2022-11-26T10:09:24.975Z,8.01
2022-11-26T10:10:24.956Z,7.98
2022-11-26T10:11:24.936Z,7.96
2022-11-26T10:12:26.373Z,7.88
2022-11-26T10:13:24.909Z,7.87
2022-11-26T10:14:24.922Z,7.81
2022-11-26T10:15:24.906Z,7.81
2022-11-26T10:16:24.934Z,7.88
2022-11-26T10:17:24.878Z,7.96
2022-11-26T10:18:24.874Z,7.95
2022-11-26T10:19:24.875Z,7.98
2022-11-26T10:20:24.998Z,8.01
2022-11-26T10:21:38.011Z,7.98
2022-11-26T10:22:24.830Z,7.99
2022-11-26T10:23:24.819Z,7.99
2022-11-26T10:24:24.812Z,8.06
2022-11-26T10:25:25.062Z,8.16
2022-11-26T10:26:24.791Z,8.17
2022-11-26T10:27:24.780Z,8.16
2022-11-26T10:28:24.780Z,8.20
2022-11-26T10:29:24.751Z,8.28
2022-11-26T10:30:24.765Z,8.34
2022-11-26T10:31:24.801Z,8.38
2022-11-26T10:32:24.732Z,8.41
2022-11-26T10:33:24.707Z,8.46
2022-11-26T10:34:25.946Z,8.49
2022-11-26T10:35:24.716Z,8.55
2022-11-26T10:36:24.689Z,8.62
2022-11-26T10:37:24.664Z,8.78
2022-11-26T10:38:24.663Z,9.03
2022-11-26T10:39:24.641Z,9.34
2022-11-26T10:40:24.670Z,9.54
2022-11-26T10:41:24.617Z,9.63
2022-11-26T10:42:24.618Z,9.73
2022-11-26T10:43:24.611Z,9.88
2022-11-26T10:44:24.602Z,9.94
2022-11-26T10:45:24.603Z,9.88
2022-11-26T10:46:24.667Z,9.87
2022-11-26T10:47:24.563Z,9.83
2022-11-26T10:48:24.560Z,9.80
2022-11-26T10:49:24.536Z,9.73
2022-11-26T10:50:46.799Z,9.67
2022-11-26T10:51:26.611Z,9.66
2022-11-26T10:52:24.508Z,9.67
2022-11-26T10:53:24.500Z,9.57
2022-11-26T10:54:24.507Z,9.42
2022-11-26T10:55:24.477Z,9.34
2022-11-26T10:56:24.500Z,9.29
2022-11-26T10:57:24.457Z,9.26
2022-11-26T10:58:24.458Z,9.22
2022-11-26T10:59:24.446Z,9.19
2022-11-26T11:00:24.439Z,9.18
2022-11-26T11:01:24.507Z,9.24
2022-11-26T11:02:24.521Z,9.29
2022-11-26T11:03:38.502Z,9.30
2022-11-26T11:04:24.399Z,9.36
2022-11-26T11:05:24.364Z,9.36
2022-11-26T11:06:24.361Z,9.40
2022-11-26T11:07:24.410Z,9.44
2022-11-26T11:08:24.367Z,9.44
2022-11-26T11:09:24.386Z,9.54
2022-11-26T11:10:24.346Z,9.59
2022-11-26T11:11:24.331Z,9.63
2022-11-26T11:12:24.330Z,9.67
2022-11-26T11:13:24.288Z,9.77
2022-11-26T11:14:24.278Z,9.87
2022-11-26T11:15:24.274Z,9.83
2022-11-26T11:16:24.353Z,9.78
2022-11-26T11:17:24.269Z,9.84
2022-11-26T11:18:24.246Z,9.67
2022-11-26T11:19:24.408Z,9.54
2022-11-26T11:20:24.229Z,9.55
2022-11-26T11:21:24.200Z,9.59
2022-11-26T11:22:24.215Z,9.66
2022-11-26T11:23:40.007Z,9.72
2022-11-26T11:24:24.201Z,9.80
2022-11-26T11:25:24.170Z,9.83
2022-11-26T11:26:24.162Z,9.75
2022-11-26T11:27:24.154Z,9.78
2022-11-26T11:28:24.184Z,9.77
2022-11-26T11:29:24.121Z,9.66
2022-11-26T11:30:24.118Z,9.67
2022-11-26T11:31:24.160Z,9.72
2022-11-26T11:32:24.106Z,9.75
2022-11-26T11:33:24.094Z,9.80
2022-11-26T11:34:24.081Z,9.69
2022-11-26T11:35:24.089Z,9.72
2022-11-26T11:36:24.041Z,9.81
2022-11-26T11:37:24.060Z,9.84
2022-11-26T11:38:24.033Z,9.84
2022-11-26T11:39:24.036Z,9.93
2022-11-26T11:40:24.012Z,9.94
2022-11-26T11:41:24.000Z,9.99
2022-11-26T11:42:23.984Z,9.98
2022-11-26T11:43:23.984Z,10.01
2022-11-26T11:44:24.012Z,10.06
2022-11-26T11:45:23.987Z,10.09
2022-11-26T11:46:24.001Z,10.05
2022-11-26T11:47:23.935Z,10.09
2022-11-26T11:48:23.917Z,10.01
2022-11-26T11:49:23.926Z,9.85
2022-11-26T11:50:23.928Z,9.91
2022-11-26T11:51:23.901Z,9.96
2022-11-26T11:52:24.494Z,9.96
2022-11-26T11:53:23.892Z,9.94
2022-11-26T11:54:23.878Z,9.96
2022-11-26T11:55:23.872Z,9.98
2022-11-26T11:56:23.846Z,9.90
2022-11-26T11:57:23.844Z,9.98
2022-11-26T11:58:23.823Z,10.05
2022-11-26T11:59:23.821Z,10.05
2022-11-26T12:00:23.824Z,10.10
2022-11-26T12:01:23.806Z,10.10
2022-11-26T12:02:23.841Z,10.17
2022-11-26T12:03:23.770Z,10.21
2022-11-26T12:04:23.826Z,10.23
2022-11-26T12:05:23.793Z,10.20
2022-11-26T12:06:23.754Z,10.12
2022-11-26T12:07:23.856Z,10.02
2022-11-26T12:08:23.722Z,9.99
2022-11-26T12:09:23.722Z,9.94
2022-11-26T12:10:23.699Z,9.96
2022-11-26T12:11:23.722Z,9.91
2022-11-26T12:12:23.731Z,9.94
2022-11-26T12:13:23.691Z,9.93
2022-11-26T12:14:23.659Z,9.96
2022-11-26T12:15:23.658Z,9.99
2022-11-26T12:16:23.682Z,9.96
2022-11-26T12:17:24.518Z,9.98
2022-11-26T12:18:23.625Z,9.96
2022-11-26T12:19:23.615Z,9.98
2022-11-26T12:20:25.415Z,9.99
2022-11-26T12:21:23.610Z,10.01
2022-11-26T12:22:23.575Z,10.09
2022-11-26T12:23:24.822Z,10.12
2022-11-26T12:24:23.554Z,10.17
2022-11-26T12:25:23.562Z,10.20
2022-11-26T12:26:23.702Z,10.23
2022-11-26T12:27:23.536Z,10.28
2022-11-26T12:28:23.518Z,10.35
2022-11-26T12:29:23.517Z,10.35
2022-11-26T12:30:23.509Z,10.38
2022-11-26T12:31:23.554Z,10.39
2022-11-26T12:32:23.476Z,10.35
2022-11-26T12:33:23.506Z,10.28
2022-11-26T12:34:23.454Z,10.28
2022-11-26T12:35:23.456Z,10.27
2022-11-26T12:36:23.439Z,10.26
2022-11-26T12:37:23.434Z,10.30
2022-11-26T12:38:23.451Z,10.35
2022-11-26T12:39:23.401Z,10.31
2022-11-26T12:40:23.403Z,10.26
2022-11-26T12:41:23.394Z,10.23
2022-11-26T12:42:23.370Z,10.23
2022-11-26T12:43:23.654Z,10.24
2022-11-26T12:44:23.367Z,10.30
2022-11-26T12:45:23.352Z,10.27
2022-11-26T12:46:23.370Z,10.23
2022-11-26T12:47:23.319Z,10.23
2022-11-26T12:48:23.311Z,10.24
2022-11-26T12:49:23.322Z,10.26
2022-11-26T12:50:23.283Z,10.28
2022-11-26T12:51:23.320Z,10.26
2022-11-26T12:52:23.264Z,10.18
2022-11-26T12:53:23.262Z,10.17
2022-11-26T12:54:23.268Z,10.10
2022-11-26T12:55:23.243Z,10.17
2022-11-26T12:56:23.244Z,10.14
2022-11-26T12:57:23.227Z,10.14
2022-11-26T12:58:23.207Z,10.16
2022-11-26T12:59:24.024Z,10.09
2022-11-26T13:00:26.063Z,10.12
2022-11-26T13:01:23.298Z,10.16
2022-11-26T13:02:23.286Z,10.08
2022-11-26T13:03:23.175Z,10.02
2022-11-26T13:04:37.658Z,10.02
2022-11-26T13:05:23.163Z,10.02
2022-11-26T13:06:23.125Z,10.02
2022-11-26T13:07:23.227Z,9.99
2022-11-26T13:08:23.090Z,9.98
2022-11-26T13:09:23.123Z,9.94
2022-11-26T13:10:23.087Z,9.96
2022-11-26T13:11:23.106Z,9.96
2022-11-26T13:12:23.061Z,9.94
2022-11-26T13:13:23.051Z,9.94
2022-11-26T13:14:23.038Z,9.88
2022-11-26T13:15:23.049Z,9.84
2022-11-26T13:16:23.232Z,9.83